ADDS METAR Data INFO
IDs: Format: Raw Decoded Include TAF

Data at: 1305 UTC 11 Dec 2017

KS25 100455Z AUTO 27010KT 10SM CLR 04/M06 A3005 RMK AO2
KS25 100435Z AUTO 28012KT 10SM CLR 04/M06 A3006 RMK AO2
KS25 100415Z AUTO 27010KT 10SM CLR 04/M06 A3006 RMK AO2
KS25 100355Z AUTO 28011G17KT 10SM CLR 05/M06 A3005 RMK AO2
KS25 100335Z AUTO 29013G19KT 10SM CLR 06/M06 A3005 RMK AO2
KS25 100315Z AUTO 28011G19KT 10SM CLR 07/M06 A3005 RMK AO2
KS25 100255Z AUTO 30011G24KT 10SM CLR 07/M06 A3004 RMK AO2
KS25 100235Z AUTO 29015G20KT 10SM CLR 06/M06 A3003 RMK AO2
KS25 100215Z AUTO 26012KT 10SM CLR 06/M05 A3002 RMK AO2
KS25 100155Z AUTO 27010G15KT 240V300 10SM CLR 06/M05 A3002 RMK AO2
KS25 100135Z AUTO 26010KT 10SM CLR 06/M05 A3002 RMK AO2
KS25 100115Z AUTO 26011G17KT 10SM CLR 06/M05 A3001 RMK AO2